Swift17 — SWIFT17 — position and weather

sailwx.info

Track history (hours):
 
Tides and Currents Weather Stations Pressure Air Temp Water Temp Dewpoint Dewpoint Depression Visibility Wind Speed Wind Dir Waves Ship Positions

Swift17

Last reported at 2017-Sep-13 20:16 UTC. Time now 2017-Sep-23 16:27 UTC.
Position N 34°53' W 120°42'.
Warning: this ship's position is 9 days out of date.

Type: Pleasure craft. MMSI: 338214659.

Date/timePositionNaut miles runAvg speedWind from/ knotsBaromVisibWave heightAir tempDewpointWater temp
2017-Sep-13 20:16N 34°53' W 120°42'0 0.1
2017-Sep-13 19:59N 34°53' W 120°42'0 0.4
2017-Sep-13 19:29N 34°53' W 120°42'0 0.5
2017-Sep-13 18:51N 34°54' W 120°42'0 0.4
2017-Sep-13 18:30N 34°54' W 120°42'0 0.4
2017-Sep-13 18:00N 34°54' W 120°42'0 0.4
2017-Sep-13 17:24N 34°54' W 120°42'0 0.3
2017-Sep-13 17:00N 34°54' W 120°42'0 0.3
2017-Sep-13 16:24N 34°55' W 120°42'0 0.5
2017-Sep-13 15:57N 34°55' W 120°42'2 0.1
2017-Sep-12 21:05N 34°53' W 120°40'0 3.2
2017-Sep-12 20:55N 34°53' W 120°40'0 0.9
2017-Sep-12 20:26N 34°53' W 120°40'0 0.7
2017-Sep-12 19:56N 34°53' W 120°41'0 0.6
2017-Sep-12 19:28N 34°53' W 120°41'0 0.6
2017-Sep-12 18:59N 34°54' W 120°41'0 0.6
2017-Sep-12 18:30N 34°54' W 120°41'1 0.0
2017-Sep-10 20:44N 34°54' W 120°42'1 5.2
2017-Sep-10 20:30N 34°53' W 120°41'0 0.3
2017-Sep-10 19:55N 34°54' W 120°41'0 0.5
2017-Sep-10 19:27N 34°54' W 120°41'0 0.3
2017-Sep-10 18:54N 34°54' W 120°42'0 0.4
2017-Sep-10 18:29N 34°54' W 120°42'0 0.3
2017-Sep-10 17:49N 34°54' W 120°42'0 0.2
2017-Sep-10 17:26N 34°54' W 120°42'0 0.1
2017-Sep-10 17:00N 34°54' W 120°42'0 0.2
2017-Sep-10 16:30N 34°54' W 120°42'0 0.6
2017-Sep-10 15:57N 34°54' W 120°42'11 0.6
2017-Sep-09 20:27N 35°05' W 120°42'0 0.6
2017-Sep-09 19:56N 35°06' W 120°42'0 0.6
2017-Sep-09 19:28N 35°06' W 120°42'0 0.6
2017-Sep-09 18:50N 35°06' W 120°43'0 0.6
2017-Sep-09 18:29N 35°06' W 120°43'0 0.6
2017-Sep-09 17:55N 35°06' W 120°43'2 0.1
2017-Sep-08 18:59N 35°08' W 120°45'0 0.4
2017-Sep-08 18:28N 35°08' W 120°45'  
Track history (hours):
 
Tides and Currents Weather Stations Pressure Air Temp Water Temp Dewpoint Dewpoint Depression Visibility Wind Speed Wind Dir Waves Ship Positions

Swift17

Last reported at 2017-Sep-13 20:16 UTC. Time now 2017-Sep-23 16:27 UTC.
Position N 34°53' W 120°42'.
Warning: this ship's position is 9 days out of date.

Type: Pleasure craft. MMSI: 338214659.

Date/timePositionNaut miles runAvg speedWind from/ knotsBaromVisibWave heightAir tempDewpointWater temp
2017-Sep-13 20:16N 34°53' W 120°42'0 0.1
2017-Sep-13 19:59N 34°53' W 120°42'0 0.4
2017-Sep-13 19:29N 34°53' W 120°42'0 0.5
2017-Sep-13 18:51N 34°54' W 120°42'0 0.4
2017-Sep-13 18:30N 34°54' W 120°42'0 0.4
2017-Sep-13 18:00N 34°54' W 120°42'0 0.4
2017-Sep-13 17:24N 34°54' W 120°42'0 0.3
2017-Sep-13 17:00N 34°54' W 120°42'0 0.3
2017-Sep-13 16:24N 34°55' W 120°42'0 0.5
2017-Sep-13 15:57N 34°55' W 120°42'2 0.1
2017-Sep-12 21:05N 34°53' W 120°40'0 3.2
2017-Sep-12 20:55N 34°53' W 120°40'0 0.9
2017-Sep-12 20:26N 34°53' W 120°40'0 0.7
2017-Sep-12 19:56N 34°53' W 120°41'0 0.6
2017-Sep-12 19:28N 34°53' W 120°41'0 0.6
2017-Sep-12 18:59N 34°54' W 120°41'0 0.6
2017-Sep-12 18:30N 34°54' W 120°41'1 0.0
2017-Sep-10 20:44N 34°54' W 120°42'1 5.2
2017-Sep-10 20:30N 34°53' W 120°41'0 0.3
2017-Sep-10 19:55N 34°54' W 120°41'0 0.5
2017-Sep-10 19:27N 34°54' W 120°41'0 0.3
2017-Sep-10 18:54N 34°54' W 120°42'0 0.4
2017-Sep-10 18:29N 34°54' W 120°42'0 0.3
2017-Sep-10 17:49N 34°54' W 120°42'0 0.2
2017-Sep-10 17:26N 34°54' W 120°42'0 0.1
2017-Sep-10 17:00N 34°54' W 120°42'0 0.2
2017-Sep-10 16:30N 34°54' W 120°42'0 0.6
2017-Sep-10 15:57N 34°54' W 120°42'11 0.6
2017-Sep-09 20:27N 35°05' W 120°42'0 0.6
2017-Sep-09 19:56N 35°06' W 120°42'0 0.6
2017-Sep-09 19:28N 35°06' W 120°42'0 0.6
2017-Sep-09 18:50N 35°06' W 120°43'0 0.6
2017-Sep-09 18:29N 35°06' W 120°43'0 0.6
2017-Sep-09 17:55N 35°06' W 120°43'2 0.1
2017-Sep-08 18:59N 35°08' W 120°45'0 0.4
2017-Sep-08 18:28N 35°08' W 120°45'  

Dump ship's entire track history